Time;durP1;ratioP1;P1;durP2;ratioP2;P2;SDS_P1;SDS_P2;PMS_P1;PMS_P2;Temp;Humidity;BMP_temperature;BMP_pressure;BME280_temperature;BME280_humidity;BME280_pressure;Samples;Min_cycle;Max_cycle;Signal;HPM_P1;HPM_P2
2022/09/30 00:00:13;;;;;;;24.70;17.63;;;;;;;17.98;49.20;92313.00;4996923;28;20033;-88
2022/09/30 00:02:39;;;;;;;22.58;17.73;;;;;;;17.99;49.40;92313.72;5028907;28;20049;-88
2022/09/30 00:05:04;;;;;;;19.17;16.38;;;;;;;17.99;49.24;92308.25;5027638;28;20078;-87
2022/09/30 00:07:30;;;;;;;22.25;15.90;;;;;;;17.98;49.21;92315.75;5012223;28;20025;-87
2022/09/30 00:09:56;;;;;;;24.25;15.70;;;;;;;17.96;49.21;92307.34;5011541;28;20400;-87
2022/09/30 00:12:21;;;;;;;20.58;15.93;;;;;;;17.99;49.25;92316.47;5032971;28;20377;-88
2022/09/30 00:14:47;;;;;;;23.85;16.88;;;;;;;17.98;48.98;92321.22;5028630;28;20040;-87
2022/09/30 00:17:12;;;;;;;22.33;16.77;;;;;;;17.97;49.31;92322.47;5011115;28;20048;-87
2022/09/30 00:19:38;;;;;;;23.02;15.90;;;;;;;17.97;49.31;92322.47;5012257;28;20029;-87
2022/09/30 00:22:03;;;;;;;19.73;15.50;;;;;;;17.98;49.14;92323.22;5027450;28;20037;-88
2022/09/30 00:24:28;;;;;;;22.13;15.82;;;;;;;17.97;49.45;92322.47;4992165;28;20040;-88
2022/09/30 00:26:54;;;;;;;21.23;15.63;;;;;;;17.97;49.29;92329.97;5032705;28;20044;-88
2022/09/30 00:29:19;;;;;;;21.50;16.23;;;;;;;17.97;49.85;92327.94;5027871;28;20045;-88
2022/09/30 00:31:45;;;;;;;21.02;15.23;;;;;;;17.97;49.07;92321.75;5011327;28;20044;-87
2022/09/30 00:34:11;;;;;;;20.27;15.30;;;;;;;17.95;49.56;92327.75;5027424;28;20033;-87
2022/09/30 00:36:43;;;;;;;20.65;15.05;;;;;;;17.95;49.65;92330.50;5028138;28;20459;-87
2022/09/30 00:39:13;;;;;;;22.52;15.00;;;;;;;17.98;49.41;92342.34;5052823;28;20037;-88
2022/09/30 00:41:39;;;;;;;20.55;15.13;;;;;;;17.97;49.53;92338.16;5033148;28;20185;-88
2022/09/30 00:44:42;;;;;;;20.58;14.27;;;;;;;17.96;49.46;92351.09;5027586;28;20048;-87
2022/09/30 00:47:44;;;;;;;18.75;14.60;;;;;;;17.95;49.39;92349.63;5045090;28;20444;-87
2022/09/30 00:50:36;;;;;;;17.83;14.25;;;;;;;17.95;49.25;92346.91;5049511;28;20582;-87
2022/09/30 00:53:22;;;;;;;19.38;14.70;;;;;;;17.95;49.83;92366.03;5016092;28;20049;-87
2022/09/30 00:55:55;;;;;;;18.92;14.15;;;;;;;17.96;49.35;92359.31;5032091;28;20516;-88
2022/09/30 00:58:27;;;;;;;18.42;13.85;;;;;;;17.95;49.26;92362.56;5029148;28;20131;-87
2022/09/30 01:00:53;;;;;;;17.42;13.75;;;;;;;17.95;49.59;92354.38;5031194;28;20319;-88
2022/09/30 01:03:20;;;;;;;19.05;14.07;;;;;;;17.96;49.48;92364.03;5014980;28;20158;-88
2022/09/30 01:05:46;;;;;;;18.20;14.40;;;;;;;17.95;49.29;92359.84;5032561;28;20496;-88
2022/09/30 01:08:11;;;;;;;17.58;13.75;;;;;;;17.95;49.42;92373.50;5048004;28;20067;-88
2022/09/30 01:10:37;;;;;;;18.38;13.70;;;;;;;17.96;49.22;92372.97;5031281;28;20045;-87
2022/09/30 01:13:02;;;;;;;20.00;14.50;;;;;;;17.95;49.45;92365.31;5020495;28;20040;-87
2022/09/30 01:15:40;;;;;;;18.45;13.18;;;;;;;17.96;49.57;92366.78;5014633;28;20070;-88
2022/09/30 01:18:10;;;;;;;18.42;13.88;;;;;;;17.93;49.33;92368.56;5032217;28;20048;-87
2022/09/30 01:20:50;;;;;;;18.57;13.07;;;;;;;17.94;49.46;92359.09;5031121;28;20063;-87
2022/09/30 01:23:16;;;;;;;;;;;;;;;17.99;49.32;92357.50;5050115;28;20032;-88
2022/09/30 01:26:03;;;;;;;17.30;13.57;;;;;;;17.95;49.60;92352.38;5033336;28;20427;-88
2022/09/30 01:28:31;;;;;;;19.30;13.30;;;;;;;17.95;49.62;92357.09;5032420;28;20308;-87
2022/09/30 01:31:17;;;;;;;18.15;13.77;;;;;;;17.93;49.56;92357.63;5031213;28;20514;-87
2022/09/30 01:34:09;;;;;;;17.52;12.73;;;;;;;17.95;49.65;92363.31;5031629;28;20095;-88
2022/09/30 01:36:47;;;;;;;17.65;13.38;;;;;;;17.94;49.39;92352.91;5003539;28;20500;-87
2022/09/30 01:39:34;;;;;;;16.80;12.73;;;;;;;17.93;49.53;92362.38;5054204;28;20494;-87
2022/09/30 01:42:26;;;;;;;17.25;12.70;;;;;;;17.93;49.57;92357.63;5052787;28;20516;-87
2022/09/30 01:45:02;;;;;;;16.52;13.02;;;;;;;17.93;49.73;92365.09;5017809;28;20545;-87
2022/09/30 01:47:35;;;;;;;19.60;13.07;;;;;;;17.92;49.60;92369.84;5047076;28;20052;-88
2022/09/30 01:50:07;;;;;;;18.65;12.45;;;;;;;17.93;49.54;92365.09;5031338;28;20051;-87
2022/09/30 01:52:41;;;;;;;14.70;11.32;;;;;;;17.93;49.53;92365.84;5010157;28;20562;-88
2022/09/30 01:55:22;;;;;;;17.20;11.90;;;;;;;17.93;49.75;92365.09;5013944;28;20037;-88
2022/09/30 01:57:55;;;;;;;;;;;;;;;17.96;49.64;92369.50;5030851;28;20053;-87
2022/09/30 02:00:21;;;;;;;15.60;12.15;;;;;;;17.93;49.81;92371.31;5028700;28;19971;-88
2022/09/30 02:02:49;;;;;;;16.55;12.13;;;;;;;17.92;49.82;92371.84;5025768;28;20037;-89
2022/09/30 02:05:36;;;;;;;15.57;11.23;;;;;;;17.93;50.01;92362.38;5013492;28;20045;-88
2022/09/30 02:08:08;;;;;;;16.73;12.13;;;;;;;17.94;49.55;92358.38;5014688;28;20060;-88
2022/09/30 02:10:37;;;;;;;16.67;12.00;;;;;;;17.92;49.40;92361.63;5013546;28;20045;-88
2022/09/30 02:13:12;;;;;;;12.20;10.50;;;;;;;17.93;49.23;92365.09;5013829;28;20067;-87
2022/09/30 02:15:39;;;;;;;15.43;11.63;;;;;;;17.92;49.45;92358.16;5030533;28;20052;-87
2022/09/30 02:18:21;;;;;;;15.10;11.60;;;;;;;17.93;49.50;92351.44;5013562;28;20045;-87
2022/09/30 02:20:48;;;;;;;16.27;12.00;;;;;;;17.91;49.45;92356.69;5046873;28;20079;-88
2022/09/30 02:23:19;;;;;;;13.65;10.32;;;;;;;17.92;49.40;92347.97;5025508;28;20033;-88
2022/09/30 02:25:47;;;;;;;15.23;11.73;;;;;;;17.90;49.71;92355.97;5020107;28;20041;-88
2022/09/30 02:28:17;;;;;;;15.13;11.60;;;;;;;17.91;49.25;92368.38;5029862;28;20039;-88
2022/09/30 02:30:44;;;;;;;13.23;10.65;;;;;;;17.92;49.64;92364.38;5030534;28;20036;-88
2022/09/30 02:33:11;;;;;;;11.15;10.02;;;;;;;17.92;49.33;92371.84;5012769;28;20088;-88
2022/09/30 02:35:44;;;;;;;13.60;10.43;;;;;;;17.91;49.39;92371.09;5030115;28;20033;-88
2022/09/30 02:38:13;;;;;;;13.98;11.15;;;;;;;17.90;49.54;92366.91;5030183;28;20036;-87
2022/09/30 02:40:42;;;;;;;15.52;11.38;;;;;;;17.93;49.24;92370.56;5016347;28;20041;-87
2022/09/30 02:43:07;;;;;;;13.65;10.18;;;;;;;17.92;49.40;92369.09;5045421;28;20056;-87
2022/09/30 02:45:45;;;;;;;14.35;10.73;;;;;;;17.89;49.97;92384.56;5030357;28;20044;-87
2022/09/30 02:48:46;;;;;;;14.43;10.82;;;;;;;17.92;49.62;92377.31;5045869;28;20048;-87
2022/09/30 02:51:17;;;;;;;11.60;8.88;;;;;;;17.91;49.63;92373.84;5029738;28;20389;-88
2022/09/30 02:53:51;;;;;;;14.30;9.80;;;;;;;17.90;49.50;92382.56;5013463;28;20052;-87
2022/09/30 02:56:27;;;;;;;13.18;10.02;;;;;;;17.91;49.85;92379.31;5027657;28;20500;-87
2022/09/30 02:58:53;;;;;;;14.95;10.70;;;;;;;17.90;49.75;92377.09;5044367;28;20526;-88
2022/09/30 03:01:18;;;;;;;14.02;10.40;;;;;;;17.90;49.54;92388.03;5028162;28;20048;-87
2022/09/30 03:03:48;;;;;;;15.63;10.68;;;;;;;17.89;49.58;92394.78;5023518;28;20041;-88
2022/09/30 03:06:14;;;;;;;13.48;10.40;;;;;;;17.90;49.96;92396.97;5029189;28;20068;-87
2022/09/30 03:08:39;;;;;;;12.40;9.20;;;;;;;17.90;49.86;92390.78;5013881;28;20041;-88
2022/09/30 03:11:05;;;;;;;13.88;9.60;;;;;;;17.90;49.52;92407.19;5031159;28;20053;-89
2022/09/30 03:13:49;;;;;;;11.93;9.77;;;;;;;17.90;49.75;92394.25;5029230;28;20040;-87
2022/09/30 03:16:55;;;;;;;13.65;9.25;;;;;;;17.90;49.69;92396.97;5045493;28;20041;-88
2022/09/30 03:19:32;;;;;;;14.00;9.65;;;;;;;17.89;49.76;92400.97;5040938;28;20435;-87
2022/09/30 03:22:11;;;;;;;13.48;9.65;;;;;;;17.89;49.47;92403.72;5045902;28;20052;-87
2022/09/30 03:25:05;;;;;;;12.75;9.43;;;;;;;17.89;49.85;92409.19;5040877;28;20041;-87
2022/09/30 03:28:08;;;;;;;13.45;9.18;;;;;;;17.88;49.84;92415.19;5037540;28;20025;-88
2022/09/30 03:30:36;;;;;;;11.70;8.95;;;;;;;17.88;49.50;92409.72;5025113;28;20563;-88
2022/09/30 03:33:21;;;;;;;11.95;9.35;;;;;;;17.89;49.78;92420.13;5033935;28;20044;-87
2022/09/30 03:36:04;;;;;;;13.27;9.55;;;;;;;17.90;49.85;92431.78;5028687;28;20471;-87
2022/09/30 03:38:45;;;;;;;12.23;9.02;;;;;;;17.90;49.74;92427.06;5029493;28;20231;-87
2022/09/30 03:41:11;;;;;;;;;;;;;;;17.92;49.40;92435.47;5038956;28;20051;-87
2022/09/30 03:43:50;;;;;;;11.95;8.52;;;;;;;17.89;50.03;92438.53;5028750;28;19916;-87
2022/09/30 03:46:43;;;;;;;11.80;9.07;;;;;;;17.87;49.87;92447.25;5042885;28;20045;-88
2022/09/30 03:49:12;;;;;;;12.18;8.38;;;;;;;17.88;49.61;92450.72;5048340;28;20442;-88
2022/09/30 03:51:37;;;;;;;12.13;8.65;;;;;;;17.87;49.81;92452.72;5035997;28;20044;-87
2022/09/30 03:54:07;;;;;;;9.25;8.15;;;;;;;17.88;49.76;92454.19;5041790;28;20419;-87
2022/09/30 03:56:32;;;;;;;10.45;8.63;;;;;;;17.88;49.71;92453.44;5012846;28;20445;-87
2022/09/30 03:58:57;;;;;;;11.43;9.02;;;;;;;17.88;49.73;92448.72;5013589;28;20037;-87
2022/09/30 04:01:23;;;;;;;10.70;8.27;;;;;;;17.87;49.71;92458.19;5032650;28;20048;-88
2022/09/30 04:03:52;;;;;;;10.02;8.18;;;;;;;17.87;49.48;92458.19;5037829;28;20037;-87
2022/09/30 04:06:20;;;;;;;11.02;8.93;;;;;;;17.89;49.66;92466.59;5026835;28;20059;-87
2022/09/30 04:08:45;;;;;;;9.93;8.35;;;;;;;17.88;49.44;92465.13;4998040;28;20037;-88
2022/09/30 04:11:11;;;;;;;9.68;8.10;;;;;;;17.89;49.71;92463.84;5010901;28;20405;-87
2022/09/30 04:13:36;;;;;;;11.85;8.52;;;;;;;17.88;49.90;92475.31;4995709;28;20041;-87
2022/09/30 04:16:02;;;;;;;11.07;8.90;;;;;;;17.87;49.72;92471.84;5028631;28;20048;-87
2022/09/30 04:18:31;;;;;;;9.77;8.18;;;;;;;17.86;49.99;92480.59;5010740;28;20463;-87
2022/09/30 04:20:57;;;;;;;10.43;8.48;;;;;;;17.88;49.94;92478.06;5028944;28;20060;-87
2022/09/30 04:23:23;;;;;;;11.35;8.93;;;;;;;17.87;49.60;92476.59;5018512;28;20053;-87
2022/09/30 04:25:53;;;;;;;10.30;7.80;;;;;;;17.86;49.72;92475.84;4996138;28;20048;-87
2022/09/30 04:28:18;;;;;;;10.35;7.57;;;;;;;17.89;49.86;92483.00;5011222;28;20274;-87
2022/09/30 04:30:44;;;;;;;10.18;8.15;;;;;;;17.89;49.88;92480.25;4995836;28;20045;-87
2022/09/30 04:33:09;;;;;;;10.00;7.20;;;;;;;17.89;49.47;92485.72;5015524;28;20469;-88
2022/09/30 04:35:36;;;;;;;17.80;9.48;;;;;;;17.92;50.09;92487.41;5046853;28;20063;-88
2022/09/30 04:38:05;;;;;;;34.45;19.92;;;;;;;17.99;50.05;92486.00;5013021;28;20662;-86
2022/09/30 04:40:31;;;;;;;34.08;23.30;;;;;;;17.99;49.67;92492.22;5025952;28;20060;-88
2022/09/30 04:42:57;;;;;;;20.98;14.32;;;;;;;18.02;49.81;92490.41;5013043;28;20037;-89
2022/09/30 04:45:23;;;;;;;12.98;9.32;;;;;;;18.06;49.78;92507.25;5030482;28;20033;-87
2022/09/30 04:47:48;;;;;;;19.77;10.90;;;;;;;18.05;49.53;92506.50;5013882;28;20045;-88
2022/09/30 04:50:14;;;;;;;14.40;10.10;;;;;;;18.02;49.58;92504.81;5026278;28;20075;-90
2022/09/30 04:52:43;;;;;;;22.17;10.15;;;;;;;18.01;49.49;92517.03;5042092;28;20096;-87
2022/09/30 04:55:09;;;;;;;27.13;11.65;;;;;;;18.04;49.54;92521.44;5020864;28;20041;-90
2022/09/30 04:57:35;;;;;;;25.73;10.48;;;;;;;18.00;49.39;92525.75;5019655;28;20478;-87
2022/09/30 05:00:01;;;;;;;17.67;8.63;;;;;;;17.99;48.83;92524.28;5027727;28;20047;-89
2022/09/30 05:02:26;;;;;;;31.90;9.13;;;;;;;17.93;48.57;92524.44;5010788;28;20029;-90
2022/09/30 05:04:53;;;;;;;17.80;8.95;;;;;;;17.91;48.61;92532.41;5045391;28;20041;-88
2022/09/30 05:07:18;;;;;;;45.55;14.15;;;;;;;17.93;48.75;92531.91;5012950;28;20041;-90
2022/09/30 05:09:45;;;;;;;45.20;19.50;;;;;;;17.85;48.30;92540.00;5029520;28;20128;-91
2022/09/30 05:12:11;;;;;;;54.70;19.70;;;;;;;17.85;48.43;92539.25;5017671;28;20037;-88
2022/09/30 05:14:36;;;;;;;51.22;17.23;;;;;;;17.88;48.61;92546.41;5012554;28;20527;-87
2022/09/30 05:17:03;;;;;;;49.78;21.90;;;;;;;17.80;48.22;92544.31;5047427;28;20056;-88
2022/09/30 05:19:29;;;;;;;29.65;16.70;;;;;;;17.75;47.99;92558.81;5048137;28;20770;-88
2022/09/30 05:21:54;;;;;;;40.63;16.50;;;;;;;17.76;48.29;92554.09;5017963;28;20040;-89
2022/09/30 05:24:20;;;;;;;70.82;19.48;;;;;;;17.72;47.83;92570.81;5028976;28;20068;-87
2022/09/30 05:26:45;;;;;;;47.70;17.13;;;;;;;17.71;47.84;92565.88;5015033;28;20045;-89
2022/09/30 05:29:11;;;;;;;45.08;15.38;;;;;;;17.69;48.07;92574.59;5011790;28;20445;-88
2022/09/30 05:31:36;;;;;;;75.03;22.35;;;;;;;17.72;48.35;92567.34;5029518;28;20356;-89
2022/09/30 05:34:03;;;;;;;67.90;21.70;;;;;;;17.71;48.03;92585.03;5031682;28;20033;-87
2022/09/30 05:36:28;;;;;;;49.08;18.38;;;;;;;17.77;48.44;92580.91;5025976;28;20090;-89
2022/09/30 05:38:54;;;;;;;28.67;14.95;;;;;;;17.77;48.32;92571.97;5069794;28;20037;-89
2022/09/30 05:41:20;;;;;;;52.25;22.60;;;;;;;17.78;48.25;92581.63;5026954;28;20056;-84
2022/09/30 05:43:46;;;;;;;49.28;23.92;;;;;;;17.80;48.83;92592.78;5031344;28;20037;-86
2022/09/30 05:46:13;;;;;;;53.22;26.48;;;;;;;17.80;48.61;92593.50;5031837;28;20033;-87
2022/09/30 05:48:39;;;;;;;63.50;27.65;;;;;;;17.81;48.51;92592.25;5031476;28;20496;-86
2022/09/30 05:51:04;;;;;;;60.45;32.00;;;;;;;17.83;48.50;92599.94;5028206;28;20124;-87
2022/09/30 05:53:32;;;;;;;77.18;32.22;;;;;;;17.81;48.80;92603.19;5033628;28;20049;-91
2022/09/30 05:55:58;;;;;;;67.82;32.83;;;;;;;17.87;48.78;92605.81;5033467;28;20065;-91
2022/09/30 05:58:23;;;;;;;70.97;33.22;;;;;;;17.86;48.65;92603.63;5030955;28;20179;-85
2022/09/30 06:00:49;;;;;;;69.68;40.45;;;;;;;17.86;48.79;92611.81;5014709;28;20037;-88
2022/09/30 06:03:15;;;;;;;71.47;41.13;;;;;;;17.88;48.66;92609.28;5011558;28;20130;-86
2022/09/30 06:05:40;;;;;;;89.68;48.45;;;;;;;17.91;49.03;92614.44;5002573;28;20843;-89
2022/09/30 06:08:06;;;;;;;130.15;62.58;;;;;;;17.94;49.28;92610.66;5026872;28;20071;-87
2022/09/30 06:10:31;;;;;;;126.07;65.88;;;;;;;17.96;48.87;92608.16;5027415;28;20044;-86
2022/09/30 06:12:58;;;;;;;150.23;88.15;;;;;;;17.97;48.81;92617.78;5022520;28;20045;-86
2022/09/30 06:15:24;;;;;;;141.27;79.25;;;;;;;18.00;49.12;92619.47;5034987;28;20462;-86
2022/09/30 06:17:53;;;;;;;151.20;84.70;;;;;;;18.03;48.74;92626.63;5042991;28;20036;-85
2022/09/30 06:20:18;;;;;;;154.52;86.15;;;;;;;18.03;48.82;92621.16;5019491;28;20123;-84
2022/09/30 06:22:43;;;;;;;152.43;94.25;;;;;;;18.06;48.67;92627.56;4994426;28;20046;-87
2022/09/30 06:25:09;;;;;;;142.77;81.22;;;;;;;18.09;48.58;92634.72;4991909;28;20038;-86
2022/09/30 06:27:37;;;;;;;165.32;93.53;;;;;;;18.07;48.54;92627.06;4992417;28;20076;-87
2022/09/30 06:30:04;;;;;;;152.77;87.72;;;;;;;18.12;48.39;92634.41;4960937;28;20052;-85
2022/09/30 06:32:31;;;;;;;120.75;73.15;;;;;;;18.09;48.67;92634.72;4979209;28;20128;-88
2022/09/30 06:34:56;;;;;;;138.68;80.13;;;;;;;18.07;48.48;92632.53;4976893;28;20181;-89
2022/09/30 06:37:22;;;;;;;148.93;85.78;;;;;;;18.06;48.86;92633.03;4989088;28;20053;-89
2022/09/30 06:39:49;;;;;;;142.50;74.45;;;;;;;18.06;48.80;92624.84;4993782;28;20042;-88
2022/09/30 06:42:14;;;;;;;137.35;76.70;;;;;;;18.08;48.60;92630.53;4971237;28;20517;-85
2022/09/30 06:44:40;;;;;;;158.63;83.88;;;;;;;18.08;48.59;92631.25;4992293;28;20043;-84
2022/09/30 06:47:06;;;;;;;139.50;75.00;;;;;;;18.05;48.61;92637.78;4994925;28;20050;-85
2022/09/30 06:49:33;;;;;;;122.93;68.80;;;;;;;18.05;48.60;92637.78;4974451;28;20039;-87
2022/09/30 06:51:59;;;;;;;127.18;69.50;;;;;;;18.07;48.74;92642.72;4975760;28;20049;-85
2022/09/30 06:54:27;;;;;;;127.85;71.90;;;;;;;18.06;48.95;92633.78;4984410;28;20413;-85
2022/09/30 06:56:56;;;;;;;140.82;76.47;;;;;;;18.06;48.98;92633.78;4998331;28;20049;-87
2022/09/30 06:59:22;;;;;;;121.57;67.30;;;;;;;18.07;48.78;92635.25;4983784;28;20047;-86
2022/09/30 07:01:49;;;;;;;134.52;74.00;;;;;;;18.04;48.74;92641.78;4981208;28;20632;-86
2022/09/30 07:04:15;;;;;;;121.93;67.13;;;;;;;18.05;48.90;92639.78;4980405;28;20437;-85
2022/09/30 07:06:41;;;;;;;113.97;65.47;;;;;;;18.06;48.66;92647.47;4983073;28;20092;-85
2022/09/30 07:09:07;;;;;;;155.65;76.38;;;;;;;18.12;48.75;92644.63;5011523;28;20509;-86
2022/09/30 07:11:33;;;;;;;136.20;69.82;;;;;;;18.06;48.89;92649.47;4977190;28;20061;-85
2022/09/30 07:14:00;;;;;;;141.07;77.15;;;;;;;18.07;48.85;92654.41;4974007;28;20065;-86
2022/09/30 07:16:25;;;;;;;129.60;74.28;;;;;;;18.06;48.65;92652.94;4989899;28;20681;-87
2022/09/30 07:18:51;;;;;;;136.40;74.53;;;;;;;18.04;48.86;92651.97;4973080;28;20072;-88
2022/09/30 07:21:16;;;;;;;130.68;73.53;;;;;;;18.04;49.34;92647.25;5023598;28;20082;-84
2022/09/30 07:23:48;;;;;;;116.53;63.22;;;;;;;18.05;49.09;92656.19;5023789;28;20037;-85
2022/09/30 07:26:16;;;;;;;115.80;60.85;;;;;;;18.06;48.80;92655.66;5019183;28;20040;-87
2022/09/30 07:28:42;;;;;;;147.15;70.03;;;;;;;18.04;49.22;92660.91;5033021;28;20263;-90
2022/09/30 07:31:11;;;;;;;133.68;62.63;;;;;;;18.04;49.19;92662.91;5042565;28;20037;-89
2022/09/30 07:33:37;;;;;;;127.32;61.55;;;;;;;18.06;48.78;92655.66;4983571;28;20077;-89
2022/09/30 07:36:04;;;;;;;112.30;55.25;;;;;;;18.05;49.16;92670.59;4992820;28;20578;-87
2022/09/30 07:38:29;;;;;;;136.07;61.03;;;;;;;18.05;49.38;92669.88;5021632;28;20123;-86
2022/09/30 07:41:00;;;;;;;129.15;62.88;;;;;;;18.05;49.22;92658.94;5040908;28;20049;-86
2022/09/30 07:43:33;;;;;;;116.22;59.35;;;;;;;18.09;49.21;92667.56;5013323;28;20601;-87
2022/09/30 07:46:04;;;;;;;129.02;62.35;;;;;;;18.08;49.15;92679.75;5008293;28;20041;-87
2022/09/30 07:51:04;;;;;;;131.15;71.03;;;;;;;18.08;49.07;92682.50;5032943;28;20037;-87
2022/09/30 07:53:31;;;;;;;123.80;63.60;;;;;;;18.10;49.25;92680.69;4995848;28;20037;-86
2022/09/30 07:55:56;;;;;;;134.48;69.50;;;;;;;18.08;48.92;92683.22;5008140;28;20038;-86
2022/09/30 07:58:22;;;;;;;129.38;64.60;;;;;;;18.06;49.47;92691.22;5018819;28;20926;-87
2022/09/30 08:00:49;;;;;;;134.40;68.60;;;;;;;18.06;49.34;92696.69;5050007;28;20041;-85
2022/09/30 08:03:15;;;;;;;135.40;67.65;;;;;;;18.05;49.22;92697.94;5048409;28;20056;-89
2022/09/30 08:05:43;;;;;;;119.00;63.85;;;;;;;18.08;49.02;92696.16;5048981;28;20045;-85
2022/09/30 08:08:11;;;;;;;113.93;62.03;;;;;;;18.06;49.18;92698.69;5027040;28;20128;-87
2022/09/30 08:10:37;;;;;;;99.10;56.47;;;;;;;18.08;48.89;92704.38;5032245;28;20029;-86
2022/09/30 08:13:03;;;;;;;104.15;59.53;;;;;;;18.07;48.91;92703.63;5049193;28;20070;-87
2022/09/30 08:15:28;;;;;;;103.38;58.05;;;;;;;18.05;49.06;92697.94;5048621;28;20482;-85
2022/09/30 08:17:54;;;;;;;101.78;57.38;;;;;;;18.06;49.01;92706.88;5058573;28;20496;-86
2022/09/30 08:20:19;;;;;;;112.60;57.72;;;;;;;18.06;49.16;92717.84;5033850;28;20427;-86
2022/09/30 08:22:45;;;;;;;102.97;53.92;;;;;;;18.06;49.01;92723.31;5049440;28;20040;-90
2022/09/30 08:25:11;;;;;;;99.40;52.13;;;;;;;18.07;49.15;92725.50;5037250;28;20048;-92
2022/09/30 08:27:37;;;;;;;103.53;54.75;;;;;;;18.08;49.25;92735.19;5050830;28;20063;-89
2022/09/30 08:30:04;;;;;;;112.00;58.58;;;;;;;18.05;49.23;92730.78;5051441;28;20049;-86
2022/09/30 08:32:29;;;;;;;104.00;57.45;;;;;;;18.07;49.26;92730.25;5031869;28;20052;-86
2022/09/30 08:34:55;;;;;;;111.68;57.05;;;;;;;18.06;49.29;92736.97;5046628;28;20038;-85
2022/09/30 08:37:21;;;;;;;100.03;57.65;;;;;;;18.06;49.16;92739.72;5035765;28;20036;-90
2022/09/30 08:39:47;;;;;;;101.75;57.90;;;;;;;18.08;49.71;92740.66;5050626;28;20041;-88
2022/09/30 08:42:15;;;;;;;105.63;59.17;;;;;;;18.09;49.43;92738.66;5047852;28;20033;-86
2022/09/30 08:44:41;;;;;;;112.18;62.03;;;;;;;18.08;49.39;92750.88;5057288;28;20037;-87
2022/09/30 08:47:34;;;;;;;102.65;61.67;;;;;;;18.06;49.29;92745.19;5042201;28;20131;-92
2022/09/30 08:50:09;;;;;;;120.43;65.60;;;;;;;18.06;49.67;92756.84;5047697;28;20037;-89
2022/09/30 08:52:38;;;;;;;108.85;61.13;;;;;;;18.05;49.41;92765.59;5050859;28;20526;-88
2022/09/30 08:55:05;;;;;;;114.68;61.78;;;;;;;18.07;49.02;92768.53;5016079;28;20033;-88
2022/09/30 08:57:36;;;;;;;113.97;58.42;;;;;;;18.06;49.20;92761.59;5016230;28;20037;-87
2022/09/30 09:00:06;;;;;;;;;;;;;;;18.05;48.49;92758.13;5032839;28;20554;-89
2022/09/30 09:02:41;;;;;;;66.75;34.35;;;;;;;17.97;48.71;92765.47;5038952;28;19924;-89
2022/09/30 09:05:09;;;;;;;72.38;34.67;;;;;;;17.96;48.87;92774.94;5048461;28;20037;-89
2022/09/30 09:07:56;;;;;;;59.00;34.05;;;;;;;17.99;48.68;92770.41;5031356;28;20033;-88
2022/09/30 09:10:39;;;;;;;78.78;38.05;;;;;;;17.96;48.78;92769.47;5051225;28;20041;-88
2022/09/30 09:13:35;;;;;;;109.28;41.88;;;;;;;18.00;48.76;92782.81;5045998;28;20053;-89
2022/09/30 09:16:22;;;;;;;142.73;48.58;;;;;;;17.99;49.38;92778.63;5041691;28;20037;-88
2022/09/30 09:19:10;;;;;;;134.20;53.22;;;;;;;18.02;49.22;92786.50;5054016;28;20037;-88
2022/09/30 09:21:52;;;;;;;120.30;54.85;;;;;;;17.99;49.51;92786.81;5033138;28;20122;-87
2022/09/30 09:24:26;;;;;;;90.00;45.30;;;;;;;18.03;49.22;92787.97;5029861;28;20125;-87
2022/09/30 09:26:53;;;;;;;118.40;51.63;;;;;;;18.03;49.38;92790.72;5023140;28;20100;-87
2022/09/30 09:29:25;;;;;;;104.90;46.10;;;;;;;18.04;49.10;92797.66;5025624;28;20483;-88
2022/09/30 09:31:51;;;;;;;128.48;49.35;;;;;;;18.03;49.57;92796.19;5057316;28;20043;-87
2022/09/30 09:34:16;;;;;;;95.55;44.67;;;;;;;18.07;49.25;92806.81;5020704;28;20041;-87
2022/09/30 09:36:57;;;;;;;109.50;46.75;;;;;;;18.05;49.69;92815.56;5025478;28;20059;-90
2022/09/30 09:39:42;;;;;;;;;;;;;;;18.07;49.32;92818.50;5031240;28;20122;-88
2022/09/30 09:42:29;;;;;;;118.30;51.88;;;;;;;18.07;49.58;92815.78;5036195;28;19966;-89
2022/09/30 09:45:17;;;;;;;118.63;47.25;;;;;;;18.07;49.39;92818.50;5016119;28;20558;-87
2022/09/30 09:47:46;;;;;;;131.88;56.35;;;;;;;18.11;49.19;92823.69;5045513;28;20057;-87
2022/09/30 09:50:15;;;;;;;129.85;58.97;;;;;;;18.10;49.33;92816.72;5040374;28;20098;-87
2022/09/30 09:52:53;;;;;;;112.82;46.30;;;;;;;18.06;49.54;92819.75;5041722;28;20060;-88
2022/09/30 09:55:20;;;;;;;91.55;43.13;;;;;;;18.05;49.54;92823.03;5050327;28;20388;-87
2022/09/30 09:57:46;;;;;;;118.05;50.47;;;;;;;18.09;49.10;92821.47;5048951;28;20132;-89
2022/09/30 10:03:18;;;;;;;136.48;47.60;;;;;;;18.08;49.26;92825.44;5033726;28;20048;-86
2022/09/30 10:05:46;;;;;;;92.00;43.63;;;;;;;18.10;49.56;92838.59;5048310;28;20059;-88
2022/09/30 10:08:16;;;;;;;103.60;47.13;;;;;;;18.08;49.66;92838.38;5047794;28;20550;-87
2022/09/30 10:10:57;;;;;;;89.50;48.72;;;;;;;18.06;49.57;92833.44;5047887;28;20041;-87
2022/09/30 10:13:24;;;;;;;83.85;44.72;;;;;;;18.08;49.46;92843.88;5031089;28;20091;-87
2022/09/30 10:15:54;;;;;;;84.13;47.63;;;;;;;18.07;49.46;92834.19;5012987;28;20535;-87
2022/09/30 10:18:25;;;;;;;106.83;56.20;;;;;;;18.09;49.33;92843.34;5030945;28;20059;-87
2022/09/30 10:20:57;;;;;;;98.22;55.65;;;;;;;18.05;49.59;92839.44;5030920;28;20037;-87
2022/09/30 10:23:34;;;;;;;153.27;83.20;;;;;;;18.07;49.60;92837.66;5030454;28;20060;-89
2022/09/30 10:26:17;;;;;;;180.20;95.68;;;;;;;18.05;49.40;92828.50;5032847;28;20144;-88
2022/09/30 10:29:05;;;;;;;157.85;87.80;;;;;;;18.04;49.52;92827.00;5014926;28;20561;-88
2022/09/30 10:31:32;;;;;;;348.92;252.90;;;;;;;18.11;49.98;92834.63;5031040;28;20040;-86
2022/09/30 10:34:29;;;;;;;269.10;183.43;;;;;;;18.07;49.81;92837.66;5035679;28;20440;-88
2022/09/30 10:36:55;;;;;;;178.18;100.68;;;;;;;18.11;49.75;92837.34;5031446;28;20071;-88
2022/09/30 10:39:23;;;;;;;158.25;90.03;;;;;;;18.12;49.98;92845.03;5012568;28;20034;-89
2022/09/30 10:42:02;;;;;;;159.95;85.57;;;;;;;18.11;49.69;92843.56;5034537;28;20033;-88
2022/09/30 10:44:27;;;;;;;165.30;88.20;;;;;;;18.14;49.44;92841.78;5030603;28;20040;-88
2022/09/30 10:46:58;;;;;;;157.90;88.50;;;;;;;18.12;49.67;92849.78;5037383;28;20494;-89
2022/09/30 10:49:27;;;;;;;141.27;83.05;;;;;;;18.10;49.66;92852.28;5027000;28;20516;-86
2022/09/30 10:51:54;;;;;;;138.57;81.05;;;;;;;18.09;49.76;92864.47;5017727;28;20069;-88
2022/09/30 10:54:38;;;;;;;151.02;83.60;;;;;;;18.09;49.72;92862.50;5029433;28;20052;-87
2022/09/30 10:57:04;;;;;;;141.57;81.55;;;;;;;18.08;49.41;92860.28;5044661;28;20073;-88
2022/09/30 10:59:36;;;;;;;139.82;78.72;;;;;;;18.06;50.01;92855.31;5050676;28;20056;-87
2022/09/30 11:02:24;;;;;;;128.85;71.80;;;;;;;18.09;49.54;92859.00;5044657;28;20510;-87
2022/09/30 11:05:02;;;;;;;121.80;73.05;;;;;;;18.07;49.73;92851.31;4995390;28;20049;-86
2022/09/30 11:07:38;;;;;;;137.02;76.50;;;;;;;18.10;49.59;92863.22;5038502;28;20511;-88
2022/09/30 11:10:08;;;;;;;112.63;68.10;;;;;;;18.07;49.55;92856.06;5029687;28;20136;-88
2022/09/30 11:12:44;;;;;;;104.85;63.95;;;;;;;18.08;49.83;92855.53;5047994;28;20518;-86
2022/09/30 11:15:20;;;;;;;115.50;63.90;;;;;;;18.06;49.72;92852.59;5014748;28;20522;-89
2022/09/30 11:18:02;;;;;;;109.22;62.75;;;;;;;18.11;49.74;92851.03;5044337;28;20040;-88
2022/09/30 11:20:29;;;;;;;94.50;59.55;;;;;;;18.07;50.07;92845.84;5014184;28;20041;-88
2022/09/30 11:23:01;;;;;;;92.60;53.78;;;;;;;18.11;49.88;92853.75;5030087;28;20025;-86
2022/09/30 11:25:55;;;;;;;91.95;56.15;;;;;;;18.08;50.20;92860.28;5047358;28;20633;-88
2022/09/30 11:28:35;;;;;;;86.45;53.83;;;;;;;18.07;50.05;92864.25;5038517;28;20519;-87
2022/09/30 11:31:13;;;;;;;96.85;57.63;;;;;;;18.07;49.65;92851.31;5028582;28;20033;-87
2022/09/30 11:33:45;;;;;;;93.13;56.97;;;;;;;18.07;49.73;92865.00;5036067;28;20055;-89
2022/09/30 11:36:31;;;;;;;93.65;55.72;;;;;;;18.07;49.64;92865.00;5012846;28;20033;-88
2022/09/30 11:39:07;;;;;;;85.32;51.50;;;;;;;18.07;49.92;92886.88;5057066;28;20049;-88